createdAt,value
2023-11-23T00:00:35.733Z,0.57
2023-11-23T00:03:05.166Z,0.50
2023-11-23T00:05:33.254Z,0.80
2023-11-23T00:08:01.558Z,0.73
2023-11-23T00:10:29.804Z,0.43
2023-11-23T00:12:57.969Z,0.77
2023-11-23T00:15:25.881Z,0.50
2023-11-23T00:17:54.450Z,0.50
2023-11-23T00:20:24.039Z,0.90
2023-11-23T00:22:52.470Z,0.60
2023-11-23T00:25:20.545Z,0.57
2023-11-23T00:27:48.627Z,0.93
2023-11-23T00:30:16.753Z,0.50
2023-11-23T00:32:44.868Z,0.60
2023-11-23T00:35:12.959Z,0.77
2023-11-23T00:37:42.332Z,0.70
2023-11-23T00:40:11.254Z,0.50
2023-11-23T00:42:39.440Z,0.97
2023-11-23T00:45:08.976Z,0.80
2023-11-23T00:47:37.205Z,0.77
2023-11-23T00:50:06.522Z,0.83
2023-11-23T00:52:34.548Z,1.20
2023-11-23T00:55:05.878Z,0.97
2023-11-23T00:57:35.749Z,1.10
2023-11-23T01:00:06.471Z,0.70
2023-11-23T01:02:34.755Z,1.20
2023-11-23T01:05:02.801Z,0.97
2023-11-23T01:07:31.092Z,0.90
2023-11-23T01:09:58.974Z,1.30
2023-11-23T01:12:28.280Z,1.13
2023-11-23T01:14:56.592Z,0.90
2023-11-23T01:17:24.500Z,0.90
2023-11-23T01:19:52.471Z,1.13
2023-11-23T01:22:20.660Z,0.53
2023-11-23T01:24:48.580Z,1.00
2023-11-23T01:27:16.529Z,0.90
2023-11-23T01:29:46.065Z,1.03
2023-11-23T01:32:14.283Z,1.27
2023-11-23T01:34:42.362Z,1.40
2023-11-23T01:37:10.557Z,1.00
2023-11-23T01:39:38.545Z,1.00
2023-11-23T01:42:06.837Z,1.10
2023-11-23T01:44:34.836Z,0.80
2023-11-23T01:47:05.820Z,1.10
2023-11-23T01:49:36.611Z,1.10
2023-11-23T01:52:05.456Z,0.80
2023-11-23T01:54:33.780Z,0.80
2023-11-23T01:57:02.190Z,0.70
2023-11-23T01:59:35.024Z,0.80
2023-11-23T02:02:06.135Z,0.93
2023-11-23T02:04:34.635Z,0.83
2023-11-23T02:07:02.683Z,1.10
2023-11-23T02:09:32.207Z,0.90
2023-11-23T02:12:02.603Z,0.85
2023-11-23T02:17:00.468Z,0.90
2023-11-23T02:19:29.844Z,1.13
2023-11-23T02:21:57.748Z,1.00
2023-11-23T02:24:27.174Z,1.00
2023-11-23T02:26:58.553Z,1.30
2023-11-23T02:29:26.488Z,1.57
2023-11-23T02:31:55.899Z,1.20
2023-11-23T02:34:23.815Z,1.20
2023-11-23T02:36:51.727Z,1.40
2023-11-23T02:39:19.830Z,1.30
2023-11-23T02:41:50.191Z,1.60
2023-11-23T02:46:46.092Z,1.33
2023-11-23T02:49:14.052Z,1.50
2023-11-23T02:51:41.943Z,1.30
2023-11-23T02:54:10.545Z,1.40
2023-11-23T02:56:38.508Z,1.10
2023-11-23T02:59:09.073Z,1.13
2023-11-23T03:01:37.321Z,1.30
2023-11-23T03:04:06.469Z,1.00
2023-11-23T03:06:34.452Z,1.20
2023-11-23T03:09:02.611Z,1.43
2023-11-23T03:11:30.717Z,1.27
2023-11-23T03:13:59.527Z,1.27
2023-11-23T03:16:29.195Z,1.50
2023-11-23T03:18:57.278Z,1.23
2023-11-23T03:21:25.489Z,1.20
2023-11-23T03:23:54.425Z,1.00
2023-11-23T03:26:22.392Z,1.17
2023-11-23T03:28:50.394Z,1.43
2023-11-23T03:31:18.748Z,1.63
2023-11-23T03:33:48.067Z,1.17
2023-11-23T03:36:16.108Z,1.37
2023-11-23T03:38:44.392Z,1.63
2023-11-23T03:41:12.558Z,1.20
2023-11-23T03:43:40.540Z,1.30
2023-11-23T03:46:09.109Z,1.17
2023-11-23T03:48:37.162Z,1.60
2023-11-23T03:51:07.505Z,1.10
2023-11-23T03:56:03.536Z,1.53
2023-11-23T03:58:31.558Z,1.40
2023-11-23T04:01:01.188Z,1.53
2023-11-23T04:03:31.716Z,1.40
2023-11-23T04:06:00.403Z,1.10
2023-11-23T04:08:29.754Z,1.27
2023-11-23T04:10:57.627Z,1.80
2023-11-23T04:13:25.758Z,1.87
2023-11-23T04:15:53.964Z,1.43
2023-11-23T04:18:22.142Z,1.17
2023-11-23T04:20:50.488Z,1.40
2023-11-23T04:23:18.374Z,1.53
2023-11-23T04:25:47.633Z,1.60
2023-11-23T04:28:16.022Z,1.40
2023-11-23T04:30:43.968Z,1.47
2023-11-23T04:33:12.318Z,1.60
2023-11-23T04:35:40.640Z,1.63
2023-11-23T04:38:08.572Z,1.57
2023-11-23T04:40:37.049Z,0.90
2023-11-23T04:43:06.530Z,1.70
2023-11-23T04:45:34.466Z,1.60
2023-11-23T04:48:05.278Z,1.30
2023-11-23T04:50:34.408Z,1.30
2023-11-23T04:53:02.303Z,1.33
2023-11-23T04:55:30.609Z,1.10
2023-11-23T04:57:58.726Z,1.00
2023-11-23T05:00:28.248Z,1.50
2023-11-23T05:02:56.813Z,1.23
2023-11-23T05:05:25.100Z,1.80
2023-11-23T05:07:53.000Z,1.50
2023-11-23T05:10:21.799Z,1.37
2023-11-23T05:12:54.470Z,1.20
2023-11-23T05:15:22.730Z,1.47
2023-11-23T05:17:52.182Z,1.43
2023-11-23T05:20:21.566Z,1.30
2023-11-23T05:22:49.487Z,1.33
2023-11-23T05:25:17.525Z,1.13
2023-11-23T05:27:45.489Z,1.20
2023-11-23T05:30:14.124Z,1.40
2023-11-23T05:32:42.195Z,1.60
2023-11-23T05:35:11.905Z,1.33
2023-11-23T05:37:39.900Z,1.42
2023-11-23T05:40:10.275Z,1.30
2023-11-23T05:42:38.475Z,1.53
2023-11-23T05:45:07.054Z,1.60
2023-11-23T05:47:35.049Z,1.87
2023-11-23T05:50:04.285Z,1.63
2023-11-23T05:52:33.569Z,1.50
2023-11-23T05:55:01.558Z,1.20
2023-11-23T05:57:29.693Z,1.00
2023-11-23T05:59:57.580Z,1.40
2023-11-23T06:02:25.604Z,1.53
2023-11-23T06:04:53.688Z,1.30
2023-11-23T06:07:21.694Z,1.20
2023-11-23T06:09:52.230Z,1.20
2023-11-23T06:12:20.242Z,0.97
2023-11-23T06:14:48.203Z,1.20
2023-11-23T06:17:16.690Z,1.07
2023-11-23T06:19:44.934Z,1.10
2023-11-23T06:22:13.267Z,1.47
2023-11-23T06:24:41.341Z,1.40
2023-11-23T06:27:11.936Z,1.43
2023-11-23T06:29:39.926Z,1.27
2023-11-23T06:32:08.528Z,1.20
2023-11-23T06:34:39.731Z,1.20
2023-11-23T06:37:09.063Z,1.10
2023-11-23T06:39:38.294Z,1.13
2023-11-23T06:42:06.562Z,1.33
2023-11-23T06:44:36.731Z,1.50
2023-11-23T06:47:05.290Z,1.10
2023-11-23T06:49:33.964Z,1.00
2023-11-23T06:52:01.875Z,1.50
2023-11-23T06:54:30.158Z,1.70
2023-11-23T06:56:58.923Z,1.57
2023-11-23T06:59:26.906Z,1.80
2023-11-23T07:01:57.594Z,1.60
2023-11-23T07:04:25.864Z,1.27
2023-11-23T07:06:53.792Z,1.90
2023-11-23T07:09:22.682Z,1.23
2023-11-23T07:11:55.270Z,2.17
2023-11-23T07:14:23.883Z,1.60
2023-11-23T07:16:53.165Z,1.33
2023-11-23T07:19:23.652Z,1.40
2023-11-23T07:24:21.028Z,1.17
2023-11-23T07:26:50.222Z,1.27
2023-11-23T07:29:18.325Z,1.87
2023-11-23T07:31:47.708Z,1.57
2023-11-23T07:34:15.687Z,1.47
2023-11-23T07:36:45.090Z,1.33
2023-11-23T07:39:13.195Z,1.70
2023-11-23T07:41:41.576Z,2.47
2023-11-23T07:44:09.637Z,1.57
2023-11-23T07:46:37.811Z,1.67
2023-11-23T07:49:07.849Z,1.70
2023-11-23T07:51:38.869Z,1.58
2023-11-23T07:54:09.204Z,1.77
2023-11-23T07:59:05.115Z,1.53
2023-11-23T08:01:33.189Z,1.40
2023-11-23T08:04:01.641Z,1.97
2023-11-23T08:06:29.721Z,1.80
2023-11-23T08:08:57.775Z,1.47
2023-11-23T08:11:27.251Z,1.93
2023-11-23T08:13:56.572Z,1.58
2023-11-23T08:16:24.501Z,2.23
2023-11-23T08:18:52.659Z,1.70
2023-11-23T08:21:20.711Z,1.40
2023-11-23T08:23:48.602Z,1.97
2023-11-23T08:26:17.100Z,1.33
2023-11-23T08:28:46.556Z,1.97
2023-11-23T08:31:14.541Z,2.00
2023-11-23T08:33:42.588Z,1.53
2023-11-23T08:36:11.271Z,2.10
2023-11-23T08:38:39.397Z,1.47
2023-11-23T08:41:07.831Z,1.40
2023-11-23T08:43:38.515Z,1.57
2023-11-23T08:46:08.840Z,1.83
2023-11-23T08:51:05.168Z,1.60
2023-11-23T08:53:33.775Z,1.53
2023-11-23T08:56:04.218Z,1.70
2023-11-23T09:01:00.790Z,1.27
2023-11-23T09:03:30.861Z,1.40
2023-11-23T09:05:59.665Z,2.20
2023-11-23T09:08:27.966Z,1.67
2023-11-23T09:10:56.994Z,1.60
2023-11-23T09:13:27.050Z,1.80
2023-11-23T09:18:24.422Z,1.90
2023-11-23T09:20:54.014Z,1.93
2023-11-23T09:23:21.973Z,1.63
2023-11-23T09:25:50.104Z,1.53
2023-11-23T09:28:18.257Z,1.53
2023-11-23T09:30:46.184Z,1.80
2023-11-23T09:33:16.423Z,1.30
2023-11-23T09:38:13.806Z,2.03
2023-11-23T09:40:42.710Z,1.73
2023-11-23T09:43:10.921Z,1.53
2023-11-23T09:45:39.811Z,1.90
2023-11-23T09:48:12.618Z,1.90
2023-11-23T09:50:42.668Z,1.20
2023-11-23T09:53:14.884Z,1.50
2023-11-23T09:55:44.810Z,1.70
2023-11-23T09:58:14.845Z,1.70
2023-11-23T10:00:43.088Z,2.20
2023-11-23T10:03:15.205Z,1.80
2023-11-23T10:05:44.869Z,1.40
2023-11-23T10:08:15.066Z,2.00
2023-11-23T10:10:42.057Z,1.60
2023-11-23T10:13:10.797Z,1.63
2023-11-23T10:15:39.063Z,1.60
2023-11-23T10:18:08.502Z,1.50
2023-11-23T10:20:39.977Z,1.70
2023-11-23T10:23:10.239Z,1.70
2023-11-23T10:25:42.903Z,1.60
2023-11-23T10:28:11.728Z,1.50
2023-11-23T10:30:40.663Z,1.23
2023-11-23T10:33:13.106Z,1.33
2023-11-23T10:35:43.920Z,1.77
2023-11-23T10:38:15.130Z,1.37
2023-11-23T10:40:46.883Z,1.70
2023-11-23T10:43:18.698Z,1.37
2023-11-23T10:45:49.719Z,1.57
2023-11-23T10:48:18.822Z,1.70
2023-11-23T10:50:47.388Z,1.20
2023-11-23T10:53:17.938Z,1.30
2023-11-23T10:55:51.001Z,1.20
2023-11-23T10:58:20.860Z,1.30
2023-11-23T11:00:49.597Z,1.88
2023-11-23T11:03:25.261Z,1.47
2023-11-23T11:05:54.680Z,1.00
2023-11-23T11:08:28.197Z,1.13
2023-11-23T11:10:58.886Z,1.33
2023-11-23T11:13:27.725Z,1.90
2023-11-23T11:15:58.846Z,0.93
2023-11-23T11:18:28.249Z,0.90
2023-11-23T11:21:13.259Z,0.70
2023-11-23T11:23:43.166Z,0.80
2023-11-23T11:26:14.338Z,0.90
2023-11-23T11:28:43.481Z,1.37
2023-11-23T11:31:14.937Z,1.00
2023-11-23T11:33:43.307Z,1.20
2023-11-23T11:36:14.100Z,0.80
2023-11-23T11:38:43.189Z,1.17
2023-11-23T11:41:12.841Z,0.90
2023-11-23T11:43:43.121Z,0.80
2023-11-23T11:46:11.270Z,0.52
2023-11-23T11:48:39.384Z,1.17
2023-11-23T11:51:10.552Z,0.80
2023-11-23T11:53:38.761Z,0.80
2023-11-23T11:56:07.912Z,0.97
2023-11-23T11:58:37.336Z,0.90
2023-11-23T12:01:06.096Z,1.10
2023-11-23T12:03:34.180Z,0.80
2023-11-23T12:06:04.988Z,0.83
2023-11-23T12:08:36.504Z,0.73
2023-11-23T12:11:06.930Z,0.70
2023-11-23T12:16:08.604Z,0.80
2023-11-23T12:18:37.945Z,0.97
2023-11-23T12:21:13.677Z,0.90
2023-11-23T12:23:43.161Z,0.80
2023-11-23T12:26:11.941Z,0.70
2023-11-23T12:28:40.291Z,0.97
2023-11-23T12:31:09.934Z,0.70
2023-11-23T12:33:39.005Z,0.90
2023-11-23T12:36:08.058Z,0.60
2023-11-23T12:38:35.989Z,0.70
2023-11-23T12:41:04.447Z,0.57
2023-11-23T12:43:32.420Z,0.50
2023-11-23T12:46:00.518Z,0.73
2023-11-23T12:48:30.123Z,0.80
2023-11-23T12:51:00.028Z,0.60
2023-11-23T12:53:30.520Z,0.70
2023-11-23T12:55:59.089Z,0.37
2023-11-23T12:58:27.079Z,0.63
2023-11-23T13:00:55.087Z,1.03
2023-11-23T13:03:24.837Z,0.73
2023-11-23T13:05:55.704Z,0.80
2023-11-23T13:08:24.997Z,1.30
2023-11-23T13:10:52.892Z,0.70
2023-11-23T13:13:20.994Z,0.70
2023-11-23T13:15:49.112Z,0.70
2023-11-23T13:18:17.428Z,0.50
2023-11-23T13:20:46.472Z,0.60
2023-11-23T13:23:16.300Z,0.53
2023-11-23T13:25:46.243Z,0.63
2023-11-23T13:28:14.991Z,0.52
2023-11-23T13:30:44.206Z,0.50
2023-11-23T13:33:17.026Z,0.63
2023-11-23T13:35:45.408Z,0.50
2023-11-23T13:38:13.352Z,0.53
2023-11-23T13:40:43.255Z,0.47
2023-11-23T13:43:12.175Z,0.40
2023-11-23T13:45:40.516Z,0.60
2023-11-23T13:48:09.608Z,0.60
2023-11-23T13:50:43.235Z,0.50
2023-11-23T13:53:12.432Z,0.60
2023-11-23T13:55:41.368Z,0.80
2023-11-23T13:58:10.904Z,0.60
2023-11-23T14:00:39.123Z,0.70
2023-11-23T14:03:07.616Z,0.70
2023-11-23T14:05:35.536Z,0.60
2023-11-23T14:08:05.676Z,0.60
2023-11-23T14:10:33.941Z,0.50
2023-11-23T14:13:01.909Z,0.57
2023-11-23T14:15:31.566Z,1.10
2023-11-23T14:18:00.948Z,0.88
2023-11-23T14:20:28.998Z,0.50
2023-11-23T14:22:56.983Z,0.40
2023-11-23T14:25:25.007Z,0.60
2023-11-23T14:27:56.693Z,0.30
2023-11-23T14:30:24.866Z,0.60
2023-11-23T14:32:54.335Z,0.50
2023-11-23T14:35:22.904Z,0.57
2023-11-23T14:37:51.859Z,0.40
2023-11-23T14:40:20.457Z,0.37
2023-11-23T14:42:56.353Z,0.40
2023-11-23T14:45:28.433Z,0.63
2023-11-23T14:47:59.846Z,0.60
2023-11-23T14:50:30.458Z,0.60
2023-11-23T14:52:59.783Z,0.50
2023-11-23T14:55:28.149Z,0.40
2023-11-23T14:57:57.969Z,0.30
2023-11-23T15:00:26.215Z,0.20
2023-11-23T15:02:54.919Z,0.20
2023-11-23T15:05:24.645Z,0.93
2023-11-23T15:07:53.814Z,0.70
2023-11-23T15:10:22.119Z,0.30
2023-11-23T15:12:53.232Z,0.40
2023-11-23T15:15:22.372Z,0.40
2023-11-23T15:17:54.226Z,0.63
2023-11-23T15:20:22.201Z,0.30
2023-11-23T15:22:52.559Z,0.40
2023-11-23T15:27:49.457Z,0.37
2023-11-23T15:30:17.714Z,0.30
2023-11-23T15:32:46.981Z,0.43
2023-11-23T15:35:15.648Z,0.47
2023-11-23T15:37:44.163Z,0.20
2023-11-23T15:40:18.088Z,0.40
2023-11-23T15:42:47.688Z,0.47
2023-11-23T15:45:15.929Z,0.45
2023-11-23T15:47:44.314Z,0.57
2023-11-23T15:50:12.950Z,0.33
2023-11-23T15:52:42.036Z,0.37
2023-11-23T15:55:12.848Z,0.30
2023-11-23T15:57:43.503Z,0.30
2023-11-23T16:00:13.704Z,0.47
2023-11-23T16:02:44.474Z,0.50
2023-11-23T16:05:14.092Z,0.30
2023-11-23T16:07:42.064Z,0.40
2023-11-23T16:10:10.805Z,0.30
2023-11-23T16:12:38.971Z,0.47
2023-11-23T16:15:11.860Z,0.40
2023-11-23T16:17:40.520Z,0.37
2023-11-23T16:20:12.012Z,0.40
2023-11-23T16:22:39.916Z,0.60
2023-11-23T16:25:08.850Z,0.50
2023-11-23T16:27:36.862Z,0.50
2023-11-23T16:30:05.964Z,0.40
2023-11-23T16:32:35.371Z,0.40
2023-11-23T16:35:04.573Z,0.50
2023-11-23T16:37:32.501Z,0.40
2023-11-23T16:40:00.380Z,0.50
2023-11-23T16:42:28.421Z,0.30
2023-11-23T16:44:56.376Z,0.43
2023-11-23T16:47:24.819Z,0.47
2023-11-23T16:49:56.036Z,0.33
2023-11-23T16:52:24.049Z,0.40
2023-11-23T16:54:52.206Z,0.47
2023-11-23T16:57:20.392Z,0.43
2023-11-23T16:59:48.775Z,0.43
2023-11-23T17:02:16.938Z,0.60
2023-11-23T17:04:50.356Z,0.50
2023-11-23T17:07:21.209Z,0.40
2023-11-23T17:09:49.211Z,0.50
2023-11-23T17:12:19.726Z,0.50
2023-11-23T17:14:47.905Z,0.60
2023-11-23T17:17:15.922Z,0.60
2023-11-23T17:19:43.997Z,0.53
2023-11-23T17:22:12.089Z,0.50
2023-11-23T17:24:42.672Z,0.60
2023-11-23T17:27:11.132Z,0.43
2023-11-23T17:29:39.477Z,0.60
2023-11-23T17:32:09.072Z,0.53
2023-11-23T17:34:37.139Z,0.40
2023-11-23T17:37:05.729Z,0.40
2023-11-23T17:39:34.050Z,0.47
2023-11-23T17:42:03.403Z,0.60
2023-11-23T17:44:31.365Z,0.70
2023-11-23T17:46:59.310Z,0.70
2023-11-23T17:49:27.711Z,0.50
2023-11-23T17:51:58.199Z,0.37
2023-11-23T17:54:29.751Z,0.40
2023-11-23T17:56:58.152Z,0.40
2023-11-23T17:59:43.341Z,0.40
2023-11-23T18:02:19.536Z,0.30
2023-11-23T18:04:52.869Z,0.40
2023-11-23T18:07:23.679Z,0.40
2023-11-23T18:09:52.228Z,0.23
2023-11-23T18:12:20.417Z,0.70
2023-11-23T18:14:49.835Z,0.30
2023-11-23T18:17:17.766Z,0.40
2023-11-23T18:19:46.041Z,0.37
2023-11-23T18:22:14.017Z,0.50
2023-11-23T18:24:41.977Z,0.50
2023-11-23T18:27:12.705Z,0.47
2023-11-23T18:29:40.807Z,0.30
2023-11-23T18:32:15.149Z,0.50
2023-11-23T18:34:43.403Z,0.30
2023-11-23T18:37:13.270Z,0.80
2023-11-23T18:39:42.345Z,2.10
2023-11-23T18:42:12.738Z,2.53
2023-11-23T18:44:41.890Z,0.60
2023-11-23T18:47:11.482Z,0.60
2023-11-23T18:49:39.424Z,0.40
2023-11-23T18:52:11.962Z,0.33
2023-11-23T18:54:40.110Z,0.30
2023-11-23T18:57:08.003Z,0.50
2023-11-23T18:59:36.063Z,0.50
2023-11-23T19:02:06.432Z,0.40
2023-11-23T19:04:35.888Z,0.40
2023-11-23T19:07:05.045Z,0.30
2023-11-23T19:09:33.757Z,0.67
2023-11-23T19:12:01.668Z,0.50
2023-11-23T19:14:32.373Z,0.30
2023-11-23T19:17:00.433Z,0.40
2023-11-23T19:19:28.879Z,0.50
2023-11-23T19:21:58.786Z,0.40
2023-11-23T19:24:27.754Z,0.50
2023-11-23T19:26:56.223Z,0.40
2023-11-23T19:29:35.195Z,0.40
2023-11-23T19:32:11.887Z,0.40
2023-11-23T19:34:40.379Z,0.55
2023-11-23T19:37:11.008Z,0.30
2023-11-23T19:39:39.527Z,0.50
2023-11-23T19:42:08.944Z,0.40
2023-11-23T19:44:37.451Z,0.38
2023-11-23T19:47:06.051Z,0.50
2023-11-23T19:49:34.582Z,0.20
2023-11-23T19:52:08.150Z,0.30
2023-11-23T19:54:37.548Z,0.40
2023-11-23T19:57:07.418Z,0.50
2023-11-23T19:59:36.029Z,0.50
2023-11-23T20:02:04.333Z,0.60
2023-11-23T20:04:34.230Z,0.80
2023-11-23T20:07:04.541Z,1.15
2023-11-23T20:12:02.237Z,1.57
2023-11-23T20:14:30.249Z,1.98
2023-11-23T20:16:58.698Z,2.53
2023-11-23T20:19:26.734Z,3.27
2023-11-23T20:21:54.835Z,2.77
2023-11-23T20:24:25.023Z,2.33
2023-11-23T20:26:53.392Z,2.55
2023-11-23T20:29:23.896Z,2.90
2023-11-23T20:31:52.300Z,2.20
2023-11-23T20:34:20.846Z,1.80
2023-11-23T20:36:49.056Z,1.00
2023-11-23T20:39:17.623Z,0.57
2023-11-23T20:41:46.827Z,0.40
2023-11-23T20:44:14.928Z,0.53
2023-11-23T20:46:45.343Z,0.57
2023-11-23T20:49:13.354Z,0.30
2023-11-23T20:51:41.409Z,0.40
2023-11-23T20:54:09.425Z,0.40
2023-11-23T20:56:37.822Z,0.40
2023-11-23T20:59:06.622Z,0.30
2023-11-23T21:01:35.234Z,0.33
2023-11-23T21:04:05.530Z,0.40
2023-11-23T21:09:03.756Z,0.20
2023-11-23T21:11:31.809Z,0.38
2023-11-23T21:13:59.810Z,0.30
2023-11-23T21:16:28.162Z,0.40
2023-11-23T21:18:56.337Z,0.60
2023-11-23T21:21:25.777Z,0.80
2023-11-23T21:23:53.701Z,0.35
2023-11-23T21:26:21.659Z,0.40
2023-11-23T21:28:49.993Z,0.60
2023-11-23T21:31:19.111Z,0.40
2023-11-23T21:33:47.092Z,0.53
2023-11-23T21:36:15.760Z,0.27
2023-11-23T21:38:45.199Z,0.50
2023-11-23T21:41:16.120Z,0.40
2023-11-23T21:43:44.391Z,0.40
2023-11-23T21:46:12.894Z,0.87
2023-11-23T21:48:41.456Z,0.30
2023-11-23T21:51:09.502Z,0.40
2023-11-23T21:53:37.477Z,0.40
2023-11-23T21:56:07.501Z,0.53
2023-11-23T21:58:35.794Z,0.50
2023-11-23T22:01:03.860Z,0.67
2023-11-23T22:03:31.994Z,0.40
2023-11-23T22:06:00.098Z,0.47
2023-11-23T22:08:28.061Z,0.50
2023-11-23T22:10:56.770Z,0.47
2023-11-23T22:13:26.426Z,0.40
2023-11-23T22:15:54.522Z,0.63
2023-11-23T22:18:23.606Z,0.40
2023-11-23T22:20:51.978Z,0.57
2023-11-23T22:23:20.471Z,0.53
2023-11-23T22:25:49.017Z,0.77
2023-11-23T22:28:17.607Z,0.50
2023-11-23T22:30:47.629Z,0.43
2023-11-23T22:33:15.963Z,0.57
2023-11-23T22:35:44.895Z,0.60
2023-11-23T22:38:15.848Z,0.50
2023-11-23T22:40:45.098Z,0.50
2023-11-23T22:43:17.714Z,0.77
2023-11-23T22:45:48.483Z,0.60
2023-11-23T22:48:16.415Z,0.80
2023-11-23T22:50:45.517Z,0.70
2023-11-23T22:53:13.897Z,0.43
2023-11-23T22:55:41.862Z,0.40
2023-11-23T22:58:09.807Z,0.70
2023-11-23T23:00:38.275Z,0.60
2023-11-23T23:03:07.778Z,0.70
2023-11-23T23:05:36.290Z,0.85
2023-11-23T23:08:05.128Z,0.60
2023-11-23T23:10:34.467Z,0.77
2023-11-23T23:13:04.307Z,0.53
2023-11-23T23:15:32.576Z,0.57
2023-11-23T23:18:00.810Z,0.67
2023-11-23T23:20:30.592Z,0.60
2023-11-23T23:22:58.857Z,0.70
2023-11-23T23:25:26.776Z,0.70
2023-11-23T23:27:54.873Z,0.90
2023-11-23T23:30:22.920Z,1.13
2023-11-23T23:32:54.353Z,0.77
2023-11-23T23:35:22.385Z,0.70
2023-11-23T23:37:51.806Z,1.03
2023-11-23T23:40:19.832Z,0.80
2023-11-23T23:42:47.840Z,0.87
2023-11-23T23:45:15.996Z,0.70
2023-11-23T23:47:46.087Z,0.60
2023-11-23T23:50:14.228Z,1.00
2023-11-23T23:52:42.384Z,0.60
2023-11-23T23:55:11.756Z,0.90
2023-11-23T23:57:39.820Z,0.80
